Time;durP1;ratioP1;P1;durP2;ratioP2;P2;SDS_P1;SDS_P2;PMS_P1;PMS_P2;Temp;Humidity;BMP_temperature;BMP_pressure;BME280_temperature;BME280_humidity;BME280_pressure;Samples;Min_cycle;Max_cycle;Signal;HPM_P1;HPM_P2
2022/12/03 00:02:58;;;;;;;69.20;22.88;;;;;;;;;;8264057;28;20057;-83
2022/12/03 00:07:01;;;;;;;56.30;19.95;;;;;;;;;;8264930;28;20125;-86
2022/12/03 00:11:06;;;;;;;53.00;19.40;;;;;;;;;;8265156;28;20061;-83
2022/12/03 00:15:10;;;;;;;57.03;17.73;;;;;;;;;;8262131;28;20057;-90
2022/12/03 00:19:14;;;;;;;60.08;18.35;;;;;;;;;;8252937;28;20065;-88
2022/12/03 00:23:16;;;;;;;51.42;18.73;;;;;;;;;;8266336;28;20043;-89
2022/12/03 00:27:20;;;;;;;66.30;21.55;;;;;;;;;;8266535;28;20205;-86
2022/12/03 00:31:24;;;;;;;59.83;18.20;;;;;;;;;;8266237;28;20120;-91
2022/12/03 00:35:26;;;;;;;50.00;16.80;;;;;;;;;;8258184;28;20046;-90
2022/12/03 00:39:29;;;;;;;32.40;12.50;;;;;;;;;;8266364;28;20047;-89
2022/12/03 00:43:33;;;;;;;44.45;15.07;;;;;;;;;;8255604;28;20117;-89
2022/12/03 00:47:37;;;;;;;53.83;17.13;;;;;;;;;;8251359;28;20043;-90
2022/12/03 00:51:39;;;;;;;55.95;20.15;;;;;;;;;;8256520;28;20406;-91
2022/12/03 00:55:42;;;;;;;51.25;16.85;;;;;;;;;;8244491;28;20088;-89
2022/12/03 00:59:46;;;;;;;62.88;21.38;;;;;;;;;;8265851;28;20046;-86
2022/12/03 01:03:49;;;;;;;52.80;18.13;;;;;;;;;;8265514;28;20089;-87
2022/12/03 01:07:52;;;;;;;59.35;19.85;;;;;;;;;;8257228;28;20042;-89
2022/12/03 01:11:55;;;;;;;60.45;18.15;;;;;;;;;;8254086;28;20454;-89
2022/12/03 01:15:59;;;;;;;51.28;18.38;;;;;;;;;;8263528;28;20553;-86
2022/12/03 01:20:02;;;;;;;30.73;12.15;;;;;;;;;;8261527;28;20042;-90
2022/12/03 01:24:05;;;;;;;60.95;19.27;;;;;;;;;;8261261;28;20055;-86
2022/12/03 01:28:08;;;;;;;76.03;19.73;;;;;;;;;;8264481;28;20061;-88
2022/12/03 01:32:18;;;;;;;56.75;17.90;;;;;;;;;;8264709;28;20056;-89
2022/12/03 01:36:24;;;;;;;55.95;18.08;;;;;;;;;;8264701;28;20046;-88
2022/12/03 01:40:26;;;;;;;62.63;17.95;;;;;;;;;;8263036;28;20050;-89
2022/12/03 01:44:32;;;;;;;60.20;20.58;;;;;;;;;;8269028;28;20153;-90
2022/12/03 01:48:37;;;;;;;49.58;18.90;;;;;;;;;;8257583;28;20061;-91
2022/12/03 01:52:41;;;;;;;74.53;18.88;;;;;;;;;;8271237;28;20042;-89
2022/12/03 01:56:44;;;;;;;60.25;17.50;;;;;;;;;;8270900;28;20121;-87
2022/12/03 02:00:47;;;;;;;57.50;17.92;;;;;;;;;;8270918;28;20125;-88
2022/12/03 02:04:53;;;;;;;62.25;17.95;;;;;;;;;;8270730;28;20073;-87
2022/12/03 02:08:58;;;;;;;54.85;19.33;;;;;;;;;;8270540;28;20121;-86
2022/12/03 02:13:03;;;;;;;56.65;18.27;;;;;;;;;;8270331;28;20050;-86
2022/12/03 02:17:06;;;;;;;60.72;17.02;;;;;;;;;;8269997;28;20046;-84
2022/12/03 02:21:18;;;;;;;69.80;20.00;;;;;;;;;;8269813;28;20050;-87
2022/12/03 02:25:24;;;;;;;58.03;20.60;;;;;;;;;;8270541;28;20042;-88
2022/12/03 02:29:27;;;;;;;27.80;9.90;;;;;;;;;;8269852;28;20077;-90
2022/12/03 02:33:29;;;;;;;55.67;17.65;;;;;;;;;;8270170;28;20050;-86
2022/12/03 02:37:35;;;;;;;73.30;19.40;;;;;;;;;;8256273;28;20046;-89
2022/12/03 02:46:02;;;;;;;62.85;17.65;;;;;;;;;;8269752;28;20053;-88
2022/12/03 02:50:07;;;;;;;69.72;17.98;;;;;;;;;;8269689;28;20410;-89
2022/12/03 02:54:12;;;;;;;56.17;17.75;;;;;;;;;;8268760;28;20046;-89
2022/12/03 02:58:18;;;;;;;56.38;19.08;;;;;;;;;;8268821;28;20433;-85
2022/12/03 03:02:20;;;;;;;57.90;17.85;;;;;;;;;;8268984;28;20113;-84
2022/12/03 03:06:24;;;;;;;62.60;20.08;;;;;;;;;;8268747;28;20051;-87
2022/12/03 03:10:27;;;;;;;55.53;17.48;;;;;;;;;;8268639;28;20043;-83
2022/12/03 03:14:32;;;;;;;64.03;20.60;;;;;;;;;;8268452;28;20050;-90
2022/12/03 03:18:38;;;;;;;49.78;16.25;;;;;;;;;;8261856;28;20072;-88
2022/12/03 03:22:43;;;;;;;65.43;18.75;;;;;;;;;;8266169;28;20132;-86
2022/12/03 03:26:45;;;;;;;68.15;20.92;;;;;;;;;;8268459;28;20104;-90
2022/12/03 03:30:50;;;;;;;64.88;18.17;;;;;;;;;;8267173;28;20054;-90
2022/12/03 03:34:53;;;;;;;60.55;18.52;;;;;;;;;;8261246;28;20046;-90
2022/12/03 03:38:56;;;;;;;55.60;16.30;;;;;;;;;;8261284;28;20054;-85
2022/12/03 03:42:59;;;;;;;36.80;11.88;;;;;;;;;;8256443;28;20043;-87
2022/12/03 03:47:03;;;;;;;46.30;14.63;;;;;;;;;;8265138;28;20039;-90
2022/12/03 03:51:08;;;;;;;70.93;19.65;;;;;;;;;;8253293;28;20466;-90
2022/12/03 03:55:12;;;;;;;73.78;23.80;;;;;;;;;;8255973;28;20043;-92
2022/12/03 03:59:15;;;;;;;74.95;21.48;;;;;;;;;;8252011;28;20126;-90
2022/12/03 04:03:19;;;;;;;67.95;18.70;;;;;;;;;;8262773;28;20051;-88
2022/12/03 04:07:21;;;;;;;68.53;17.27;;;;;;;;;;8257740;28;20125;-85
2022/12/03 04:15:44;;;;;;;73.90;21.55;;;;;;;;;;8253925;28;20402;-89
2022/12/03 04:19:48;;;;;;;77.55;28.48;;;;;;;;;;8249284;28;20062;-90
2022/12/03 04:23:49;;;;;;;69.30;20.92;;;;;;;;;;8265545;28;20504;-91
2022/12/03 04:36:33;;;;;;;59.28;18.23;;;;;;;;;;8267155;28;20115;-88
2022/12/03 04:44:57;;;;;;;70.18;19.67;;;;;;;;;;8262386;28;20038;-84
2022/12/03 04:48:59;;;;;;;55.58;20.10;;;;;;;;;;8255516;28;20096;-88
2022/12/03 04:53:03;;;;;;;57.20;17.42;;;;;;;;;;8252707;28;20121;-89
2022/12/03 04:57:07;;;;;;;23.75;7.30;;;;;;;;;;8264523;28;20046;-90
2022/12/03 05:01:10;;;;;;;63.15;19.73;;;;;;;;;;8251638;28;20078;-88
2022/12/03 05:05:12;;;;;;;61.22;16.52;;;;;;;;;;8258293;28;20073;-88
2022/12/03 05:09:16;;;;;;;78.72;23.52;;;;;;;;;;8259213;28;20065;-86
2022/12/03 05:13:19;;;;;;;76.47;21.75;;;;;;;;;;8251198;28;20379;-89
2022/12/03 05:17:22;;;;;;;70.00;19.50;;;;;;;;;;8252326;28;20047;-88
2022/12/03 05:21:24;;;;;;;45.10;14.38;;;;;;;;;;8248071;28;20057;-88
2022/12/03 05:25:28;;;;;;;67.15;18.23;;;;;;;;;;8257272;28;20056;-88
2022/12/03 05:29:31;;;;;;;56.13;20.35;;;;;;;;;;8251631;28;20050;-91
2022/12/03 05:33:34;;;;;;;61.40;20.65;;;;;;;;;;8245837;28;20038;-88
2022/12/03 05:37:36;;;;;;;51.47;18.30;;;;;;;;;;8262962;28;20104;-85
2022/12/03 05:46:00;;;;;;;68.07;22.02;;;;;;;;;;8255278;28;20073;-90
2022/12/03 05:50:02;;;;;;;63.67;19.00;;;;;;;;;;8261682;28;20038;-90
2022/12/03 05:54:05;;;;;;;64.05;19.83;;;;;;;;;;8256615;28;20047;-89
2022/12/03 05:58:10;;;;;;;69.53;22.20;;;;;;;;;;8261667;28;20043;-86
2022/12/03 06:02:13;;;;;;;71.00;20.48;;;;;;;;;;8258474;28;20050;-91
2022/12/03 06:06:16;;;;;;;58.80;19.98;;;;;;;;;;8255861;28;20081;-90
2022/12/03 06:10:22;;;;;;;52.67;18.80;;;;;;;;;;8254606;28;20042;-90
2022/12/03 06:14:29;;;;;;;63.90;20.90;;;;;;;;;;8258903;28;20034;-92
2022/12/03 06:18:31;;;;;;;52.03;17.15;;;;;;;;;;8259319;28;20490;-91
2022/12/03 06:22:34;;;;;;;591.08;235.27;;;;;;;;;;8250207;28;20123;-89
2022/12/03 06:26:36;;;;;;;266.38;50.92;;;;;;;;;;8260418;28;20042;-86
2022/12/03 06:30:43;;;;;;;51.22;18.00;;;;;;;;;;8268601;28;20069;-89
2022/12/03 06:34:46;;;;;;;25.88;10.18;;;;;;;;;;8271204;28;20057;-86
2022/12/03 06:38:48;;;;;;;92.93;24.48;;;;;;;;;;8270126;28;20079;-89
2022/12/03 06:42:51;;;;;;;82.68;24.52;;;;;;;;;;8269300;28;20046;-89
2022/12/03 06:46:55;;;;;;;84.13;24.13;;;;;;;;;;8270007;28;20521;-90
2022/12/03 06:50:58;;;;;;;134.57;41.65;;;;;;;;;;8263104;28;20042;-88
2022/12/03 06:55:01;;;;;;;284.55;87.80;;;;;;;;;;8269968;28;20410;-91
2022/12/03 06:59:04;;;;;;;146.18;52.30;;;;;;;;;;8268979;28;20479;-85
2022/12/03 07:03:08;;;;;;;115.97;47.20;;;;;;;;;;8268439;28;20058;-90
2022/12/03 07:07:11;;;;;;;65.82;25.33;;;;;;;;;;8268720;28;20486;-90
2022/12/03 07:15:30;;;;;;;62.33;22.95;;;;;;;;;;8257131;28;20176;-87
2022/12/03 07:19:35;;;;;;;59.63;20.13;;;;;;;;;;8269251;28;20073;-88
2022/12/03 07:23:38;;;;;;;87.13;26.42;;;;;;;;;;8268870;28;20050;-88
2022/12/03 07:27:41;;;;;;;66.30;24.55;;;;;;;;;;8268756;28;20058;-91
2022/12/03 07:31:43;;;;;;;96.82;30.15;;;;;;;;;;8268818;28;20081;-89
2022/12/03 07:35:48;;;;;;;172.23;56.42;;;;;;;;;;8268768;28;20524;-87
2022/12/03 07:39:51;;;;;;;45.13;15.65;;;;;;;;;;8268263;28;20054;-88
2022/12/03 07:43:54;;;;;;;101.13;29.70;;;;;;;;;;8267399;28;20050;-91
2022/12/03 07:47:56;;;;;;;61.95;23.92;;;;;;;;;;8265485;28;20042;-85
2022/12/03 07:52:01;;;;;;;38.78;13.05;;;;;;;;;;8268167;28;20490;-89
2022/12/03 07:56:04;;;;;;;74.93;26.60;;;;;;;;;;8267543;28;20050;-92
2022/12/03 08:00:08;;;;;;;75.70;23.85;;;;;;;;;;8255902;28;20514;-83
2022/12/03 08:04:11;;;;;;;77.85;21.10;;;;;;;;;;8255418;28;20046;-89
2022/12/03 08:08:16;;;;;;;61.50;19.73;;;;;;;;;;8266273;28;20078;-91
2022/12/03 08:12:38;;;;;;;60.17;19.13;;;;;;;;;;8275160;28;20081;-93
2022/12/03 08:21:14;;;;;;;99.07;29.55;;;;;;;;;;8273789;28;20058;-94
2022/12/03 08:25:22;;;;;;;;;;;;;;;;;;8275470;28;20124;-86
2022/12/03 08:29:27;;;;;;;23.38;7.60;;;;;;;;;;8251755;28;19925;-89
2022/12/03 08:33:35;;;;;;;127.28;38.30;;;;;;;;;;8264683;28;20522;-90
2022/12/03 08:37:43;;;;;;;89.03;26.52;;;;;;;;;;8251578;28;20072;-89
2022/12/03 08:46:15;;;;;;;81.97;24.52;;;;;;;;;;8253006;28;20046;-88
2022/12/03 08:50:28;;;;;;;91.88;29.10;;;;;;;;;;8259775;28;20520;-88
2022/12/03 08:54:31;;;;;;;95.82;30.95;;;;;;;;;;8257333;28;20054;-88
2022/12/03 08:58:38;;;;;;;81.57;17.77;;;;;;;;;;8247864;28;20053;-89
2022/12/03 09:02:47;;;;;;;87.97;27.45;;;;;;;;;;8252219;28;20781;-90
2022/12/03 09:06:59;;;;;;;120.43;33.88;;;;;;;;;;8247567;28;20046;-92
2022/12/03 09:11:25;;;;;;;109.78;29.92;;;;;;;;;;8243905;28;20121;-91
2022/12/03 09:15:45;;;;;;;115.87;31.83;;;;;;;;;;8240634;28;20146;-89
2022/12/03 09:20:13;;;;;;;128.13;33.58;;;;;;;;;;8261896;28;20046;-90
2022/12/03 09:24:33;;;;;;;138.90;44.72;;;;;;;;;;8243595;28;20052;-90
2022/12/03 09:28:42;;;;;;;116.32;31.35;;;;;;;;;;8238515;28;20059;-89
2022/12/03 09:32:52;;;;;;;120.68;31.85;;;;;;;;;;8243308;28;20495;-91
2022/12/03 09:37:03;;;;;;;259.40;68.05;;;;;;;;;;8256487;28;20053;-90
2022/12/03 09:45:35;;;;;;;57.03;16.45;;;;;;;;;;8240248;28;20062;-90
2022/12/03 09:50:14;;;;;;;29.33;11.07;;;;;;;;;;8240181;28;20089;-91
2022/12/03 09:54:29;;;;;;;66.53;18.88;;;;;;;;;;8247130;28;20084;-90
2022/12/03 09:58:56;;;;;;;85.88;25.27;;;;;;;;;;8260555;28;20046;-89
2022/12/03 10:03:08;;;;;;;156.20;38.05;;;;;;;;;;8245129;28;20502;-90
2022/12/03 10:07:28;;;;;;;106.25;36.92;;;;;;;;;;8263014;28;20046;-91
2022/12/03 10:11:58;;;;;;;94.13;25.65;;;;;;;;;;8258272;28;20548;-92
2022/12/03 10:16:16;;;;;;;89.80;27.73;;;;;;;;;;8247649;28;20409;-91
2022/12/03 10:20:26;;;;;;;126.90;33.67;;;;;;;;;;8257435;28;20054;-90
2022/12/03 10:24:43;;;;;;;127.22;35.42;;;;;;;;;;8252249;28;20391;-90
2022/12/03 10:28:55;;;;;;;100.72;29.08;;;;;;;;;;8244431;28;20164;-89
2022/12/03 10:33:16;;;;;;;135.77;37.72;;;;;;;;;;8250819;28;20053;-89
2022/12/03 10:37:26;;;;;;;142.87;45.33;;;;;;;;;;8243380;28;20172;-87
2022/12/03 10:41:53;;;;;;;70.03;23.58;;;;;;;;;;8244087;28;20046;-89
2022/12/03 10:46:19;;;;;;;102.53;27.50;;;;;;;;;;8239899;28;20077;-89
2022/12/03 10:54:46;;;;;;;129.93;32.83;;;;;;;;;;8240523;28;20482;-86
2022/12/03 10:58:52;;;;;;;55.83;17.55;;;;;;;;;;8255574;28;20070;-83
2022/12/03 11:02:54;;;;;;;272.65;85.60;;;;;;;;;;8255577;28;20388;-85
2022/12/03 11:06:57;;;;;;;120.80;32.30;;;;;;;;;;8242111;28;20511;-85
2022/12/03 11:11:01;;;;;;;104.72;32.38;;;;;;;;;;8236614;28;20069;-85
2022/12/03 11:15:14;;;;;;;125.43;32.65;;;;;;;;;;8245899;28;20046;-86
2022/12/03 11:19:18;;;;;;;113.97;33.15;;;;;;;;;;8248224;28;20054;-86
2022/12/03 11:23:56;;;;;;;115.82;31.25;;;;;;;;;;8250004;28;20050;-85
2022/12/03 11:28:31;;;;;;;123.55;34.47;;;;;;;;;;8249281;28;20067;-86
2022/12/03 11:33:20;;;;;;;100.53;33.95;;;;;;;;;;8225774;28;20058;-86
2022/12/03 11:37:27;;;;;;;87.03;24.45;;;;;;;;;;8225958;28;20046;-85
2022/12/03 11:41:34;;;;;;;105.88;30.08;;;;;;;;;;8257714;28;20462;-87
2022/12/03 11:45:39;;;;;;;101.47;28.40;;;;;;;;;;8257265;28;20042;-87
2022/12/03 11:49:50;;;;;;;110.18;30.48;;;;;;;;;;8254082;28;20053;-87
2022/12/03 11:53:56;;;;;;;120.45;34.10;;;;;;;;;;8239002;28;20410;-86
2022/12/03 11:58:02;;;;;;;169.57;61.45;;;;;;;;;;8247110;28;20043;-88
2022/12/03 12:02:20;;;;;;;58.67;15.77;;;;;;;;;;8254913;28;20120;-86
2022/12/03 12:06:24;;;;;;;90.82;26.48;;;;;;;;;;8255627;28;20061;-87
2022/12/03 12:10:46;;;;;;;129.43;41.92;;;;;;;;;;8249957;28;20078;-86
2022/12/03 12:14:49;;;;;;;167.32;41.08;;;;;;;;;;8246555;28;20057;-89
2022/12/03 12:18:51;;;;;;;135.38;33.05;;;;;;;;;;8242716;28;20042;-87
2022/12/03 12:22:56;;;;;;;92.80;28.83;;;;;;;;;;8237680;28;20063;-90
2022/12/03 12:27:01;;;;;;;122.25;32.45;;;;;;;;;;8239987;28;20058;-88
2022/12/03 12:31:10;;;;;;;99.47;28.40;;;;;;;;;;8255440;28;20058;-88
2022/12/03 12:35:17;;;;;;;94.32;24.60;;;;;;;;;;8240973;28;20413;-90
2022/12/03 12:39:21;;;;;;;107.57;32.53;;;;;;;;;;8238893;28;20482;-90
2022/12/03 12:43:26;;;;;;;127.85;36.78;;;;;;;;;;8244053;28;20061;-88
2022/12/03 12:47:32;;;;;;;93.07;26.92;;;;;;;;;;8238989;28;20055;-88
2022/12/03 12:51:35;;;;;;;102.82;27.08;;;;;;;;;;8239879;28;20204;-87
2022/12/03 12:55:40;;;;;;;112.22;35.13;;;;;;;;;;8237576;28;20047;-88
2022/12/03 12:59:46;;;;;;;91.53;28.92;;;;;;;;;;8239973;28;20050;-88
2022/12/03 13:03:51;;;;;;;112.28;30.45;;;;;;;;;;8257819;28;20046;-89
2022/12/03 13:07:55;;;;;;;103.03;29.92;;;;;;;;;;8230849;28;20413;-88
2022/12/03 13:12:02;;;;;;;111.60;31.83;;;;;;;;;;8247342;28;20050;-85
2022/12/03 13:16:07;;;;;;;114.45;31.38;;;;;;;;;;8253955;28;20042;-89
2022/12/03 13:20:17;;;;;;;132.02;34.97;;;;;;;;;;8246778;28;20152;-88
2022/12/03 13:24:38;;;;;;;96.30;28.70;;;;;;;;;;8247629;28;20046;-85
2022/12/03 13:28:42;;;;;;;135.23;46.50;;;;;;;;;;8250222;28;20047;-89
2022/12/03 13:32:45;;;;;;;130.80;37.45;;;;;;;;;;8246257;28;20042;-91
2022/12/03 13:36:48;;;;;;;131.63;37.58;;;;;;;;;;8260811;28;20112;-91
2022/12/03 13:40:59;;;;;;;106.75;35.55;;;;;;;;;;8245225;28;20042;-90
2022/12/03 13:45:06;;;;;;;170.10;49.13;;;;;;;;;;8247202;28;20479;-86
2022/12/03 13:49:18;;;;;;;161.75;47.78;;;;;;;;;;8251150;28;20561;-88
2022/12/03 13:53:24;;;;;;;152.95;54.10;;;;;;;;;;8248212;28;20683;-90
2022/12/03 13:57:26;;;;;;;115.85;29.60;;;;;;;;;;8248392;28;20053;-86
2022/12/03 14:01:31;;;;;;;181.30;49.42;;;;;;;;;;8249612;28;20054;-86
2022/12/03 14:05:33;;;;;;;117.82;37.20;;;;;;;;;;8250915;28;20050;-90
2022/12/03 14:09:36;;;;;;;263.58;44.70;;;;;;;;;;8241297;28;20386;-90
2022/12/03 14:13:39;;;;;;;172.02;57.72;;;;;;;;;;8247995;28;20106;-89
2022/12/03 14:17:43;;;;;;;243.98;73.75;;;;;;;;;;8247446;28;20051;-86
2022/12/03 14:21:46;;;;;;;172.10;50.08;;;;;;;;;;8250653;28;20043;-89
2022/12/03 14:25:49;;;;;;;145.25;41.75;;;;;;;;;;8250486;28;20086;-91
2022/12/03 14:29:52;;;;;;;186.23;56.65;;;;;;;;;;8248063;28;20499;-85
2022/12/03 14:33:56;;;;;;;202.70;62.17;;;;;;;;;;8242362;28;20053;-86
2022/12/03 14:37:59;;;;;;;137.07;42.40;;;;;;;;;;8246198;28;20438;-88
2022/12/03 14:42:13;;;;;;;143.07;41.58;;;;;;;;;;8262215;28;20081;-89
2022/12/03 14:46:16;;;;;;;133.35;38.78;;;;;;;;;;8250335;28;20050;-89
2022/12/03 14:50:20;;;;;;;120.72;33.45;;;;;;;;;;8256535;28;20058;-91
2022/12/03 14:54:23;;;;;;;164.45;50.47;;;;;;;;;;8254732;28;20374;-89
2022/12/03 14:58:26;;;;;;;165.38;47.95;;;;;;;;;;8248545;28;20047;-92
2022/12/03 15:02:30;;;;;;;122.65;34.75;;;;;;;;;;8257574;28;20885;-91
2022/12/03 15:06:34;;;;;;;154.68;45.05;;;;;;;;;;8261081;28;20493;-92
2022/12/03 15:10:37;;;;;;;122.70;31.83;;;;;;;;;;8255055;28;20045;-88
2022/12/03 15:14:41;;;;;;;147.23;41.53;;;;;;;;;;8256220;28;20396;-89
2022/12/03 15:18:43;;;;;;;144.75;42.10;;;;;;;;;;8263982;28;20081;-91
2022/12/03 15:22:48;;;;;;;104.80;31.85;;;;;;;;;;8239156;28;20054;-91
2022/12/03 15:26:51;;;;;;;108.90;33.05;;;;;;;;;;8261664;28;20050;-90
2022/12/03 15:30:54;;;;;;;102.18;31.75;;;;;;;;;;8251421;28;20055;-88
2022/12/03 15:34:56;;;;;;;103.22;31.20;;;;;;;;;;8253879;28;20497;-90
2022/12/03 15:39:01;;;;;;;100.75;34.22;;;;;;;;;;8252643;28;20061;-90
2022/12/03 15:43:03;;;;;;;170.90;51.33;;;;;;;;;;8261895;28;20050;-88
2022/12/03 15:47:06;;;;;;;64.25;22.63;;;;;;;;;;8252248;28;20085;-91
2022/12/03 15:51:09;;;;;;;94.80;28.67;;;;;;;;;;8265391;28;20042;-87
2022/12/03 15:55:13;;;;;;;88.97;31.67;;;;;;;;;;8251655;28;20057;-86
2022/12/03 15:59:16;;;;;;;90.82;30.55;;;;;;;;;;8261322;28;20042;-92
2022/12/03 16:03:19;;;;;;;106.38;31.75;;;;;;;;;;8258554;28;20046;-89
2022/12/03 16:07:22;;;;;;;122.47;32.45;;;;;;;;;;8252553;28;20053;-90
2022/12/03 16:11:26;;;;;;;71.90;24.10;;;;;;;;;;8255064;28;20129;-88
2022/12/03 16:15:29;;;;;;;96.30;28.33;;;;;;;;;;8259152;28;20054;-92
2022/12/03 16:19:32;;;;;;;135.48;38.15;;;;;;;;;;8259745;28;20092;-89
2022/12/03 16:23:34;;;;;;;87.97;28.63;;;;;;;;;;8264335;28;20153;-89
2022/12/03 16:27:39;;;;;;;91.32;29.15;;;;;;;;;;8261322;28;20054;-91
2022/12/03 16:31:42;;;;;;;82.07;24.73;;;;;;;;;;8256795;28;20482;-89
2022/12/03 16:35:45;;;;;;;83.80;25.90;;;;;;;;;;8252538;28;20509;-89
2022/12/03 16:39:49;;;;;;;85.18;28.67;;;;;;;;;;8265952;28;20584;-88
2022/12/03 16:43:53;;;;;;;91.32;26.70;;;;;;;;;;8256536;28;20526;-90
2022/12/03 16:47:56;;;;;;;92.05;32.08;;;;;;;;;;8244043;28;20046;-91
2022/12/03 16:51:59;;;;;;;91.88;27.30;;;;;;;;;;8256370;28;20050;-91
2022/12/03 16:56:02;;;;;;;105.18;33.85;;;;;;;;;;8259930;28;20398;-88
2022/12/03 17:00:08;;;;;;;73.75;22.67;;;;;;;;;;8259123;28;20070;-90
2022/12/03 17:04:11;;;;;;;82.30;27.30;;;;;;;;;;8250325;28;20137;-88
2022/12/03 17:08:14;;;;;;;64.40;25.65;;;;;;;;;;8248361;28;20051;-90
2022/12/03 17:12:17;;;;;;;78.78;26.35;;;;;;;;;;8252166;28;20054;-88
2022/12/03 17:16:21;;;;;;;84.10;28.92;;;;;;;;;;8260016;28;20555;-87
2022/12/03 17:20:25;;;;;;;71.38;24.92;;;;;;;;;;8258949;28;20124;-90
2022/12/03 17:24:28;;;;;;;103.85;33.78;;;;;;;;;;8239502;28;20410;-91
2022/12/03 17:28:31;;;;;;;84.70;29.95;;;;;;;;;;8248723;28;20078;-84
2022/12/03 17:32:37;;;;;;;157.35;44.08;;;;;;;;;;8260245;28;20066;-89
2022/12/03 17:36:40;;;;;;;66.03;21.17;;;;;;;;;;8238800;28;20464;-84
2022/12/03 17:40:42;;;;;;;93.40;29.58;;;;;;;;;;8248158;28;20042;-87
2022/12/03 17:44:45;;;;;;;88.75;29.88;;;;;;;;;;8246186;28;20093;-90
2022/12/03 17:48:49;;;;;;;66.45;25.70;;;;;;;;;;8237858;28;20047;-84
2022/12/03 17:52:52;;;;;;;82.07;26.65;;;;;;;;;;8239724;28;20054;-88
2022/12/03 17:56:55;;;;;;;136.70;39.15;;;;;;;;;;8256784;28;20406;-87
2022/12/03 18:00:58;;;;;;;68.60;25.25;;;;;;;;;;8264619;28;20617;-87
2022/12/03 18:05:02;;;;;;;61.25;21.63;;;;;;;;;;8247332;28;20182;-85
2022/12/03 18:09:05;;;;;;;47.78;16.60;;;;;;;;;;8264577;28;20054;-90
2022/12/03 18:13:08;;;;;;;68.43;23.15;;;;;;;;;;8264187;28;20043;-89
2022/12/03 18:17:11;;;;;;;68.15;22.73;;;;;;;;;;8264511;28;20046;-83
2022/12/03 18:21:30;;;;;;;58.78;22.58;;;;;;;;;;8221295;28;20058;-90
2022/12/03 18:25:33;;;;;;;72.75;26.67;;;;;;;;;;8267449;28;20153;-85
2022/12/03 18:29:36;;;;;;;69.28;24.60;;;;;;;;;;8270147;28;20058;-91
2022/12/03 18:33:38;;;;;;;163.80;64.88;;;;;;;;;;8269637;28;20050;-90
2022/12/03 18:37:42;;;;;;;89.95;31.73;;;;;;;;;;8270241;28;20082;-87
2022/12/03 18:41:45;;;;;;;128.18;44.92;;;;;;;;;;8264655;28;20050;-87
2022/12/03 18:45:48;;;;;;;98.13;34.42;;;;;;;;;;8269715;28;20050;-84
2022/12/03 18:49:51;;;;;;;71.78;23.98;;;;;;;;;;8269789;28;20062;-87
2022/12/03 18:53:55;;;;;;;78.20;27.95;;;;;;;;;;8269793;28;20452;-89
2022/12/03 18:57:58;;;;;;;71.75;25.70;;;;;;;;;;8255982;28;20057;-87
2022/12/03 19:02:01;;;;;;;66.50;23.35;;;;;;;;;;8269552;28;20076;-86
2022/12/03 19:06:04;;;;;;;85.07;26.17;;;;;;;;;;8269242;28;20043;-90
2022/12/03 19:10:11;;;;;;;104.30;30.98;;;;;;;;;;8269151;28;20061;-89
2022/12/03 19:14:15;;;;;;;73.05;22.88;;;;;;;;;;8269071;28;20042;-90
2022/12/03 19:18:18;;;;;;;85.75;28.38;;;;;;;;;;8268777;28;20141;-87
2022/12/03 19:22:21;;;;;;;87.43;28.35;;;;;;;;;;8268676;28;20054;-86
2022/12/03 19:26:25;;;;;;;88.22;29.13;;;;;;;;;;8269129;28;20148;-86
2022/12/03 19:30:28;;;;;;;93.30;27.63;;;;;;;;;;8268369;28;20125;-89
2022/12/03 19:34:31;;;;;;;76.72;26.58;;;;;;;;;;8269023;28;20056;-88
2022/12/03 19:38:35;;;;;;;101.90;31.50;;;;;;;;;;8255657;28;20054;-89
2022/12/03 19:42:40;;;;;;;46.40;18.55;;;;;;;;;;8268135;28;20050;-87
2022/12/03 19:46:43;;;;;;;97.43;31.13;;;;;;;;;;8267723;28;20057;-91
2022/12/03 19:50:49;;;;;;;62.67;21.83;;;;;;;;;;8263482;28;20502;-88
2022/12/03 19:54:52;;;;;;;58.40;20.38;;;;;;;;;;8258448;28;20494;-86
2022/12/03 19:58:56;;;;;;;51.63;19.00;;;;;;;;;;8262827;28;20038;-82
2022/12/03 20:02:59;;;;;;;83.70;26.17;;;;;;;;;;8261947;28;20061;-86
2022/12/03 20:07:02;;;;;;;72.40;27.05;;;;;;;;;;8260433;28;20050;-89
2022/12/03 20:11:09;;;;;;;88.63;29.98;;;;;;;;;;8260046;28;20054;-86
2022/12/03 20:15:14;;;;;;;119.30;48.25;;;;;;;;;;8261386;28;20065;-87
2022/12/03 20:19:18;;;;;;;110.22;43.67;;;;;;;;;;8255654;28;20049;-89
2022/12/03 20:23:21;;;;;;;61.58;18.88;;;;;;;;;;8258251;28;20077;-87
2022/12/03 20:27:24;;;;;;;92.43;34.20;;;;;;;;;;8249113;28;20046;-85
2022/12/03 20:31:30;;;;;;;55.97;23.15;;;;;;;;;;8256603;28;20058;-85
2022/12/03 20:35:35;;;;;;;63.83;22.52;;;;;;;;;;8253269;28;20754;-89
2022/12/03 20:39:37;;;;;;;54.60;23.10;;;;;;;;;;8254765;28;20491;-91
2022/12/03 20:43:41;;;;;;;139.30;41.08;;;;;;;;;;8259298;28;20462;-86
2022/12/03 20:47:46;;;;;;;50.95;19.70;;;;;;;;;;8259229;28;20046;-86
2022/12/03 20:51:50;;;;;;;52.97;24.13;;;;;;;;;;8256183;28;20073;-84
2022/12/03 20:55:56;;;;;;;35.88;15.35;;;;;;;;;;8264229;28;20043;-86
2022/12/03 20:59:58;;;;;;;44.13;18.08;;;;;;;;;;8252539;28;20415;-85
2022/12/03 21:04:04;;;;;;;73.35;28.73;;;;;;;;;;8249004;28;20130;-86
2022/12/03 21:08:07;;;;;;;45.00;18.30;;;;;;;;;;8234891;28;20145;-84
2022/12/03 21:12:14;;;;;;;28.98;12.90;;;;;;;;;;8242968;28;20062;-85
2022/12/03 21:16:19;;;;;;;50.13;21.98;;;;;;;;;;8248780;28;20073;-88
2022/12/03 21:20:24;;;;;;;45.08;17.52;;;;;;;;;;8261542;28;20074;-82
2022/12/03 21:24:28;;;;;;;60.55;22.67;;;;;;;;;;8259699;28;20506;-90
2022/12/03 21:28:31;;;;;;;43.85;15.77;;;;;;;;;;8254838;28;20054;-85
2022/12/03 21:32:34;;;;;;;51.47;18.85;;;;;;;;;;8257982;28;20042;-86
2022/12/03 21:36:38;;;;;;;43.47;17.92;;;;;;;;;;8263274;28;20491;-86
2022/12/03 21:40:43;;;;;;;54.17;20.42;;;;;;;;;;8264020;28;20148;-86
2022/12/03 21:44:46;;;;;;;109.30;29.52;;;;;;;;;;8254870;28;20046;-88
2022/12/03 21:48:50;;;;;;;34.22;14.40;;;;;;;;;;8264643;28;20471;-87
2022/12/03 21:52:54;;;;;;;23.83;9.98;;;;;;;;;;8264613;28;20046;-88
2022/12/03 21:56:59;;;;;;;39.40;15.23;;;;;;;;;;8263478;28;20047;-86
2022/12/03 22:01:01;;;;;;;27.73;12.00;;;;;;;;;;8268824;28;20533;-86
2022/12/03 22:05:05;;;;;;;23.42;9.27;;;;;;;;;;8269720;28;20046;-86
2022/12/03 22:09:09;;;;;;;36.63;15.07;;;;;;;;;;8269620;28;20491;-86
2022/12/03 22:13:12;;;;;;;47.25;16.40;;;;;;;;;;8252100;28;20051;-88
2022/12/03 22:17:14;;;;;;;34.22;12.90;;;;;;;;;;8269111;28;20060;-86
2022/12/03 22:21:20;;;;;;;40.05;15.73;;;;;;;;;;8267106;28;20057;-84
2022/12/03 22:25:24;;;;;;;27.85;11.93;;;;;;;;;;8269022;28;20046;-88
2022/12/03 22:29:27;;;;;;;38.45;14.85;;;;;;;;;;8269036;28;20137;-86
2022/12/03 22:33:30;;;;;;;45.00;16.27;;;;;;;;;;8269475;28;20050;-89
2022/12/03 22:37:33;;;;;;;40.78;18.50;;;;;;;;;;8269640;28;20046;-84
2022/12/03 22:41:37;;;;;;;35.08;14.80;;;;;;;;;;8268938;28;20053;-86
2022/12/03 22:45:39;;;;;;;23.92;10.38;;;;;;;;;;8268609;28;20048;-85
2022/12/03 22:49:42;;;;;;;30.27;11.77;;;;;;;;;;8266260;28;20049;-88
2022/12/03 22:53:45;;;;;;;32.88;14.27;;;;;;;;;;8268747;28;20108;-86
2022/12/03 22:57:49;;;;;;;29.90;12.65;;;;;;;;;;8254948;28;20047;-88
2022/12/03 23:01:52;;;;;;;22.27;9.45;;;;;;;;;;8268502;28;20038;-83
2022/12/03 23:05:54;;;;;;;39.92;15.85;;;;;;;;;;8268220;28;20053;-86
2022/12/03 23:09:57;;;;;;;36.33;14.30;;;;;;;;;;8267572;28;20129;-84
2022/12/03 23:14:01;;;;;;;40.45;15.05;;;;;;;;;;8268045;28;20130;-86
2022/12/03 23:18:04;;;;;;;40.80;15.35;;;;;;;;;;8268217;28;20042;-86
2022/12/03 23:22:07;;;;;;;39.83;15.50;;;;;;;;;;8265570;28;20056;-87
2022/12/03 23:26:11;;;;;;;31.98;13.48;;;;;;;;;;8268146;28;20605;-84
2022/12/03 23:30:16;;;;;;;31.55;14.13;;;;;;;;;;8267299;28;20059;-88
2022/12/03 23:34:18;;;;;;;43.92;16.27;;;;;;;;;;8267397;28;20054;-86
2022/12/03 23:38:21;;;;;;;27.88;10.80;;;;;;;;;;8267922;28;20478;-86
2022/12/03 23:42:24;;;;;;;35.85;14.57;;;;;;;;;;8266980;28;20050;-86
2022/12/03 23:46:28;;;;;;;27.80;12.75;;;;;;;;;;8267177;28;20050;-84
2022/12/03 23:50:33;;;;;;;13.00;6.40;;;;;;;;;;8266685;28;20046;-84
2022/12/03 23:54:37;;;;;;;30.80;10.75;;;;;;;;;;8267245;28;20121;-83
2022/12/03 23:58:39;;;;;;;16.77;7.35;;;;;;;;;;8267285;28;20051;-87
